sensor_id;sensor_type;location;lat;lon;timestamp;P1;durP1;ratioP1;P2;durP2;ratioP2
65387;SDS011;51992;53.528;49.474;2024-03-23T00:54:28;6.00;;;3.33;;
65387;SDS011;51992;53.528;49.474;2024-03-23T00:56:54;5.20;;;3.20;;
65387;SDS011;51992;53.528;49.474;2024-03-23T00:59:19;6.32;;;3.10;;
65387;SDS011;51992;53.528;49.474;2024-03-23T01:01:47;4.28;;;2.55;;
65387;SDS011;51992;53.528;49.474;2024-03-23T01:04:13;6.78;;;2.53;;
65387;SDS011;51992;53.528;49.474;2024-03-23T01:06:38;3.55;;;2.35;;
65387;SDS011;51992;53.528;49.474;2024-03-23T01:09:04;3.85;;;2.42;;
65387;SDS011;51992;53.528;49.474;2024-03-23T01:11:30;4.78;;;2.78;;
65387;SDS011;51992;53.528;49.474;2024-03-23T01:13:55;5.72;;;2.90;;
65387;SDS011;51992;53.528;49.474;2024-03-23T01:16:21;5.82;;;3.58;;
65387;SDS011;51992;53.528;49.474;2024-03-23T01:18:47;4.68;;;3.72;;
65387;SDS011;51992;53.528;49.474;2024-03-23T01:21:13;5.70;;;3.78;;
65387;SDS011;51992;53.528;49.474;2024-03-23T01:23:39;9.00;;;4.18;;
65387;SDS011;51992;53.528;49.474;2024-03-23T01:26:05;4.45;;;3.92;;
65387;SDS011;51992;53.528;49.474;2024-03-23T01:28:30;5.80;;;4.20;;
65387;SDS011;51992;53.528;49.474;2024-03-23T01:30:56;7.93;;;4.13;;
65387;SDS011;51992;53.528;49.474;2024-03-23T01:33:22;6.97;;;3.90;;
65387;SDS011;51992;53.528;49.474;2024-03-23T01:35:47;5.05;;;3.50;;
65387;SDS011;51992;53.528;49.474;2024-03-23T01:38:13;6.10;;;3.20;;
65387;SDS011;51992;53.528;49.474;2024-03-23T01:40:39;4.18;;;3.30;;
65387;SDS011;51992;53.528;49.474;2024-03-23T01:43:05;5.65;;;3.00;;
65387;SDS011;51992;53.528;49.474;2024-03-23T01:45:33;8.25;;;2.83;;
65387;SDS011;51992;53.528;49.474;2024-03-23T01:47:59;5.07;;;2.90;;
65387;SDS011;51992;53.528;49.474;2024-03-23T01:50:25;5.00;;;2.72;;
65387;SDS011;51992;53.528;49.474;2024-03-23T01:52:51;3.72;;;2.50;;
65387;SDS011;51992;53.528;49.474;2024-03-23T01:55:17;4.07;;;2.72;;
65387;SDS011;51992;53.528;49.474;2024-03-23T01:57:42;5.60;;;2.60;;
65387;SDS011;51992;53.528;49.474;2024-03-23T02:00:08;3.03;;;2.45;;
65387;SDS011;51992;53.528;49.474;2024-03-23T02:02:35;5.97;;;2.33;;
65387;SDS011;51992;53.528;49.474;2024-03-23T02:05:00;2.55;;;2.33;;
65387;SDS011;51992;53.528;49.474;2024-03-23T02:07:27;5.60;;;2.63;;
65387;SDS011;51992;53.528;49.474;2024-03-23T02:09:52;8.60;;;2.95;;
65387;SDS011;51992;53.528;49.474;2024-03-23T02:12:18;6.82;;;3.60;;
65387;SDS011;51992;53.528;49.474;2024-03-23T02:14:44;4.53;;;3.22;;
65387;SDS011;51992;53.528;49.474;2024-03-23T02:17:10;6.95;;;4.25;;
65387;SDS011;51992;53.528;49.474;2024-03-23T02:19:36;6.68;;;4.22;;
65387;SDS011;51992;53.528;49.474;2024-03-23T02:22:01;8.13;;;4.82;;
65387;SDS011;51992;53.528;49.474;2024-03-23T02:24:29;6.70;;;4.20;;
65387;SDS011;51992;53.528;49.474;2024-03-23T02:26:54;6.28;;;3.55;;
65387;SDS011;51992;53.528;49.474;2024-03-23T02:29:20;9.05;;;3.72;;
65387;SDS011;51992;53.528;49.474;2024-03-23T02:31:46;6.93;;;4.60;;
65387;SDS011;51992;53.528;49.474;2024-03-23T02:34:11;9.68;;;4.55;;
65387;SDS011;51992;53.528;49.474;2024-03-23T02:36:37;8.45;;;4.85;;
65387;SDS011;51992;53.528;49.474;2024-03-23T02:39:03;10.45;;;3.72;;
65387;SDS011;51992;53.528;49.474;2024-03-23T02:41:28;4.13;;;2.80;;
65387;SDS011;51992;53.528;49.474;2024-03-23T02:43:54;7.65;;;3.22;;
65387;SDS011;51992;53.528;49.474;2024-03-23T02:46:20;6.80;;;3.20;;
65387;SDS011;51992;53.528;49.474;2024-03-23T02:48:48;8.35;;;3.05;;
65387;SDS011;51992;53.528;49.474;2024-03-23T02:51:14;3.50;;;2.80;;
65387;SDS011;51992;53.528;49.474;2024-03-23T02:53:39;5.85;;;3.40;;
65387;SDS011;51992;53.528;49.474;2024-03-23T02:56:05;6.28;;;3.17;;
65387;SDS011;51992;53.528;49.474;2024-03-23T02:58:31;5.00;;;2.92;;
65387;SDS011;51992;53.528;49.474;2024-03-23T03:00:56;4.90;;;2.75;;
65387;SDS011;51992;53.528;49.474;2024-03-23T03:03:22;7.22;;;2.92;;
65387;SDS011;51992;53.528;49.474;2024-03-23T03:05:48;5.15;;;3.03;;
65387;SDS011;51992;53.528;49.474;2024-03-23T03:08:13;11.52;;;3.90;;
65387;SDS011;51992;53.528;49.474;2024-03-23T03:10:39;5.10;;;2.92;;
65387;SDS011;51992;53.528;49.474;2024-03-23T03:13:05;4.35;;;2.65;;
65387;SDS011;51992;53.528;49.474;2024-03-23T03:15:30;7.18;;;3.05;;
65387;SDS011;51992;53.528;49.474;2024-03-23T03:17:56;4.18;;;2.83;;
65387;SDS011;51992;53.528;49.474;2024-03-23T03:20:22;6.45;;;3.00;;
65387;SDS011;51992;53.528;49.474;2024-03-23T03:22:49;7.60;;;2.90;;
65387;SDS011;51992;53.528;49.474;2024-03-23T03:25:14;9.80;;;3.50;;
65387;SDS011;51992;53.528;49.474;2024-03-23T03:27:40;11.85;;;3.17;;
65387;SDS011;51992;53.528;49.474;2024-03-23T03:30:06;9.98;;;3.30;;
65387;SDS011;51992;53.528;49.474;2024-03-23T03:32:33;6.45;;;3.47;;
65387;SDS011;51992;53.528;49.474;2024-03-23T03:34:59;6.18;;;4.03;;
65387;SDS011;51992;53.528;49.474;2024-03-23T03:37:25;6.60;;;4.10;;
65387;SDS011;51992;53.528;49.474;2024-03-23T03:39:51;7.63;;;3.67;;
65387;SDS011;51992;53.528;49.474;2024-03-23T03:42:17;9.18;;;3.70;;
65387;SDS011;51992;53.528;49.474;2024-03-23T03:44:43;7.88;;;3.40;;
65387;SDS011;51992;53.528;49.474;2024-03-23T03:47:08;5.40;;;3.15;;
65387;SDS011;51992;53.528;49.474;2024-03-23T03:49:35;5.03;;;2.97;;
65387;SDS011;51992;53.528;49.474;2024-03-23T03:52:01;6.03;;;2.83;;
65387;SDS011;51992;53.528;49.474;2024-03-23T03:54:27;6.20;;;2.80;;
65387;SDS011;51992;53.528;49.474;2024-03-23T03:56:53;5.45;;;3.22;;
65387;SDS011;51992;53.528;49.474;2024-03-23T03:59:18;5.82;;;2.85;;
65387;SDS011;51992;53.528;49.474;2024-03-23T04:01:45;4.32;;;2.67;;
65387;SDS011;51992;53.528;49.474;2024-03-23T04:04:12;4.82;;;2.75;;
65387;SDS011;51992;53.528;49.474;2024-03-23T04:06:37;4.90;;;3.30;;
65387;SDS011;51992;53.528;49.474;2024-03-23T04:09:04;4.25;;;2.95;;
65387;SDS011;51992;53.528;49.474;2024-03-23T04:11:29;7.90;;;3.15;;
65387;SDS011;51992;53.528;49.474;2024-03-23T04:13:55;9.85;;;2.83;;
65387;SDS011;51992;53.528;49.474;2024-03-23T04:16:39;8.88;;;3.08;;
65387;SDS011;51992;53.528;49.474;2024-03-23T04:19:05;6.43;;;2.63;;
65387;SDS011;51992;53.528;49.474;2024-03-23T04:21:31;8.30;;;3.30;;
65387;SDS011;51992;53.528;49.474;2024-03-23T04:23:56;10.98;;;3.30;;
65387;SDS011;51992;53.528;49.474;2024-03-23T04:26:23;5.57;;;3.30;;
65387;SDS011;51992;53.528;49.474;2024-03-23T04:28:48;12.18;;;3.90;;
65387;SDS011;51992;53.528;49.474;2024-03-23T04:31:14;10.75;;;3.88;;
65387;SDS011;51992;53.528;49.474;2024-03-23T04:33:40;11.30;;;4.63;;
65387;SDS011;51992;53.528;49.474;2024-03-23T04:36:06;12.38;;;3.95;;
65387;SDS011;51992;53.528;49.474;2024-03-23T04:38:32;15.20;;;3.88;;
65387;SDS011;51992;53.528;49.474;2024-03-23T04:40:58;14.48;;;4.10;;
65387;SDS011;51992;53.528;49.474;2024-03-23T04:43:27;13.43;;;3.88;;
65387;SDS011;51992;53.528;49.474;2024-03-23T04:45:54;12.73;;;5.10;;
65387;SDS011;51992;53.528;49.474;2024-03-23T04:48:23;9.00;;;4.47;;
65387;SDS011;51992;53.528;49.474;2024-03-23T04:50:49;13.90;;;6.35;;
65387;SDS011;51992;53.528;49.474;2024-03-23T04:53:15;16.83;;;8.80;;
65387;SDS011;51992;53.528;49.474;2024-03-23T04:55:42;25.10;;;9.20;;
65387;SDS011;51992;53.528;49.474;2024-03-23T04:58:07;26.90;;;12.88;;
65387;SDS011;51992;53.528;49.474;2024-03-23T05:00:33;22.30;;;9.40;;
65387;SDS011;51992;53.528;49.474;2024-03-23T05:02:59;12.05;;;5.13;;
65387;SDS011;51992;53.528;49.474;2024-03-23T05:05:25;13.45;;;4.40;;
65387;SDS011;51992;53.528;49.474;2024-03-23T05:07:51;10.45;;;3.88;;
65387;SDS011;51992;53.528;49.474;2024-03-23T05:10:16;12.23;;;4.07;;
65387;SDS011;51992;53.528;49.474;2024-03-23T05:12:42;10.45;;;3.78;;
65387;SDS011;51992;53.528;49.474;2024-03-23T05:15:09;14.05;;;4.10;;
65387;SDS011;51992;53.528;49.474;2024-03-23T05:17:35;12.93;;;3.92;;
65387;SDS011;51992;53.528;49.474;2024-03-23T05:20:01;7.32;;;3.92;;
65387;SDS011;51992;53.528;49.474;2024-03-23T05:22:28;8.90;;;3.67;;
65387;SDS011;51992;53.528;49.474;2024-03-23T05:24:54;15.32;;;4.13;;
65387;SDS011;51992;53.528;49.474;2024-03-23T05:27:19;12.40;;;4.18;;
65387;SDS011;51992;53.528;49.474;2024-03-23T05:29:45;9.15;;;4.10;;
65387;SDS011;51992;53.528;49.474;2024-03-23T05:32:11;14.10;;;4.22;;
65387;SDS011;51992;53.528;49.474;2024-03-23T05:34:36;13.82;;;4.70;;
65387;SDS011;51992;53.528;49.474;2024-03-23T05:37:02;12.48;;;4.20;;
65387;SDS011;51992;53.528;49.474;2024-03-23T05:39:28;10.70;;;4.18;;
65387;SDS011;51992;53.528;49.474;2024-03-23T05:41:54;9.07;;;4.47;;
65387;SDS011;51992;53.528;49.474;2024-03-23T05:44:19;10.30;;;4.88;;
65387;SDS011;51992;53.528;49.474;2024-03-23T05:46:45;12.40;;;4.60;;
65387;SDS011;51992;53.528;49.474;2024-03-23T05:49:14;11.43;;;4.53;;
65387;SDS011;51992;53.528;49.474;2024-03-23T05:51:39;10.88;;;4.10;;
65387;SDS011;51992;53.528;49.474;2024-03-23T05:54:05;10.77;;;4.63;;
65387;SDS011;51992;53.528;49.474;2024-03-23T05:56:31;12.27;;;4.40;;
65387;SDS011;51992;53.528;49.474;2024-03-23T05:58:57;10.23;;;4.88;;
65387;SDS011;51992;53.528;49.474;2024-03-23T06:01:22;14.50;;;4.22;;
65387;SDS011;51992;53.528;49.474;2024-03-23T06:03:48;10.43;;;3.80;;
65387;SDS011;51992;53.528;49.474;2024-03-23T06:06:14;7.72;;;3.60;;
65387;SDS011;51992;53.528;49.474;2024-03-23T06:08:40;7.28;;;3.63;;
65387;SDS011;51992;53.528;49.474;2024-03-23T06:11:06;5.10;;;2.95;;
65387;SDS011;51992;53.528;49.474;2024-03-23T06:13:32;6.30;;;3.75;;
65387;SDS011;51992;53.528;49.474;2024-03-23T06:16:02;4.13;;;2.33;;
65387;SDS011;51992;53.528;49.474;2024-03-23T06:18:28;6.97;;;2.42;;
65387;SDS011;51992;53.528;49.474;2024-03-23T06:20:53;4.47;;;2.40;;
65387;SDS011;51992;53.528;49.474;2024-03-23T06:23:20;4.18;;;2.15;;
65387;SDS011;51992;53.528;49.474;2024-03-23T06:25:46;6.15;;;2.70;;
65387;SDS011;51992;53.528;49.474;2024-03-23T06:28:12;4.50;;;1.80;;
65387;SDS011;51992;53.528;49.474;2024-03-23T06:30:38;3.17;;;2.20;;
65387;SDS011;51992;53.528;49.474;2024-03-23T06:33:03;8.32;;;2.42;;
65387;SDS011;51992;53.528;49.474;2024-03-23T06:35:31;5.80;;;2.13;;
65387;SDS011;51992;53.528;49.474;2024-03-23T06:37:56;2.40;;;1.27;;
65387;SDS011;51992;53.528;49.474;2024-03-23T06:40:26;2.58;;;1.02;;
65387;SDS011;51992;53.528;49.474;2024-03-23T06:42:52;4.88;;;1.30;;
65387;SDS011;51992;53.528;49.474;2024-03-23T06:45:17;4.47;;;1.23;;
65387;SDS011;51992;53.528;49.474;2024-03-23T06:47:49;1.77;;;1.20;;
65387;SDS011;51992;53.528;49.474;2024-03-23T06:50:15;3.70;;;1.33;;
65387;SDS011;51992;53.528;49.474;2024-03-23T06:52:40;2.92;;;1.42;;
65387;SDS011;51992;53.528;49.474;2024-03-23T06:55:06;1.80;;;1.45;;
65387;SDS011;51992;53.528;49.474;2024-03-23T06:57:32;1.38;;;1.00;;
65387;SDS011;51992;53.528;49.474;2024-03-23T06:59:57;2.70;;;1.67;;
65387;SDS011;51992;53.528;49.474;2024-03-23T07:02:23;1.73;;;1.40;;
65387;SDS011;51992;53.528;49.474;2024-03-23T07:04:49;1.23;;;0.80;;
65387;SDS011;51992;53.528;49.474;2024-03-23T07:07:15;2.65;;;1.20;;
65387;SDS011;51992;53.528;49.474;2024-03-23T07:09:40;2.28;;;1.02;;
65387;SDS011;51992;53.528;49.474;2024-03-23T07:12:06;3.63;;;1.40;;
65387;SDS011;51992;53.528;49.474;2024-03-23T07:14:32;2.85;;;1.42;;
65387;SDS011;51992;53.528;49.474;2024-03-23T07:16:57;2.00;;;1.10;;
65387;SDS011;51992;53.528;49.474;2024-03-23T07:19:23;1.05;;;0.93;;
65387;SDS011;51992;53.528;49.474;2024-03-23T07:21:50;3.22;;;2.92;;
65387;SDS011;51992;53.528;49.474;2024-03-23T07:24:15;4.75;;;2.97;;
65387;SDS011;51992;53.528;49.474;2024-03-23T07:26:41;2.50;;;2.10;;
65387;SDS011;51992;53.528;49.474;2024-03-23T07:29:07;4.10;;;3.28;;
65387;SDS011;51992;53.528;49.474;2024-03-23T07:31:33;3.47;;;2.20;;
65387;SDS011;51992;53.528;49.474;2024-03-23T07:33:58;6.70;;;3.00;;
65387;SDS011;51992;53.528;49.474;2024-03-23T07:36:24;2.63;;;2.17;;
65387;SDS011;51992;53.528;49.474;2024-03-23T07:38:50;3.42;;;1.85;;
65387;SDS011;51992;53.528;49.474;2024-03-23T07:41:18;5.30;;;1.98;;
65387;SDS011;51992;53.528;49.474;2024-03-23T07:43:44;4.18;;;1.70;;
65387;SDS011;51992;53.528;49.474;2024-03-23T07:46:10;5.95;;;1.35;;
65387;SDS011;51992;53.528;49.474;2024-03-23T07:48:37;3.97;;;1.63;;
65387;SDS011;51992;53.528;49.474;2024-03-23T07:51:14;3.40;;;1.45;;
65387;SDS011;51992;53.528;49.474;2024-03-23T07:53:42;1.95;;;1.75;;
65387;SDS011;51992;53.528;49.474;2024-03-23T07:56:08;1.63;;;1.52;;
65387;SDS011;51992;53.528;49.474;2024-03-23T07:58:37;8.10;;;1.73;;
65387;SDS011;51992;53.528;49.474;2024-03-23T08:01:13;2.78;;;1.80;;
65387;SDS011;51992;53.528;49.474;2024-03-23T08:03:43;5.43;;;2.63;;
65387;SDS011;51992;53.528;49.474;2024-03-23T08:06:12;5.35;;;2.22;;
65387;SDS011;51992;53.528;49.474;2024-03-23T08:08:39;2.28;;;2.08;;
65387;SDS011;51992;53.528;49.474;2024-03-23T08:11:04;2.53;;;1.67;;
65387;SDS011;51992;53.528;49.474;2024-03-23T08:13:30;1.73;;;1.63;;
65387;SDS011;51992;53.528;49.474;2024-03-23T08:16:00;6.03;;;1.83;;
65387;SDS011;51992;53.528;49.474;2024-03-23T08:18:25;4.40;;;2.33;;
65387;SDS011;51992;53.528;49.474;2024-03-23T08:20:55;1.50;;;1.40;;
65387;SDS011;51992;53.528;49.474;2024-03-23T08:23:21;2.33;;;2.03;;
65387;SDS011;51992;53.528;49.474;2024-03-23T08:25:46;5.57;;;2.10;;
65387;SDS011;51992;53.528;49.474;2024-03-23T08:28:12;7.53;;;2.60;;
65387;SDS011;51992;53.528;49.474;2024-03-23T08:30:38;6.35;;;2.88;;
65387;SDS011;51992;53.528;49.474;2024-03-23T08:33:04;8.82;;;3.13;;
65387;SDS011;51992;53.528;49.474;2024-03-23T08:35:29;4.10;;;2.50;;
65387;SDS011;51992;53.528;49.474;2024-03-23T08:37:55;2.50;;;2.00;;
65387;SDS011;51992;53.528;49.474;2024-03-23T08:40:21;3.33;;;3.03;;
65387;SDS011;51992;53.528;49.474;2024-03-23T08:42:47;8.70;;;4.15;;
65387;SDS011;51992;53.528;49.474;2024-03-23T08:45:13;15.52;;;11.02;;
65387;SDS011;51992;53.528;49.474;2024-03-23T08:47:39;10.50;;;8.48;;
65387;SDS011;51992;53.528;49.474;2024-03-23T08:50:04;6.65;;;2.72;;
65387;SDS011;51992;53.528;49.474;2024-03-23T08:52:31;3.65;;;2.78;;
65387;SDS011;51992;53.528;49.474;2024-03-23T08:54:56;3.58;;;2.13;;
65387;SDS011;51992;53.528;49.474;2024-03-23T08:57:23;3.97;;;2.88;;
65387;SDS011;51992;53.528;49.474;2024-03-23T08:59:49;3.58;;;2.60;;
65387;SDS011;51992;53.528;49.474;2024-03-23T09:02:15;3.65;;;2.55;;
65387;SDS011;51992;53.528;49.474;2024-03-23T09:04:40;4.15;;;2.42;;
65387;SDS011;51992;53.528;49.474;2024-03-23T09:07:06;6.07;;;3.28;;
65387;SDS011;51992;53.528;49.474;2024-03-23T09:09:32;5.95;;;2.50;;
65387;SDS011;51992;53.528;49.474;2024-03-23T09:11:57;4.40;;;2.45;;
65387;SDS011;51992;53.528;49.474;2024-03-23T09:14:23;6.32;;;2.17;;
65387;SDS011;51992;53.528;49.474;2024-03-23T09:16:49;7.13;;;2.00;;
65387;SDS011;51992;53.528;49.474;2024-03-23T09:19:16;1.20;;;1.10;;
65387;SDS011;51992;53.528;49.474;2024-03-23T09:21:42;4.82;;;1.52;;
65387;SDS011;51992;53.528;49.474;2024-03-23T09:24:08;1.38;;;1.23;;
65387;SDS011;51992;53.528;49.474;2024-03-23T09:26:33;3.72;;;1.23;;
65387;SDS011;51992;53.528;49.474;2024-03-23T09:28:59;1.73;;;1.20;;
65387;SDS011;51992;53.528;49.474;2024-03-23T09:31:25;2.70;;;2.50;;
65387;SDS011;51992;53.528;49.474;2024-03-23T09:33:51;6.88;;;3.03;;
65387;SDS011;51992;53.528;49.474;2024-03-23T09:36:16;4.65;;;2.67;;
65387;SDS011;51992;53.528;49.474;2024-03-23T09:38:43;3.00;;;2.33;;
65387;SDS011;51992;53.528;49.474;2024-03-23T09:41:11;4.20;;;2.65;;
65387;SDS011;51992;53.528;49.474;2024-03-23T09:43:37;4.63;;;2.20;;
65387;SDS011;51992;53.528;49.474;2024-03-23T09:46:03;3.88;;;1.67;;
65387;SDS011;51992;53.528;49.474;2024-03-23T09:48:29;1.83;;;1.58;;
65387;SDS011;51992;53.528;49.474;2024-03-23T09:50:55;3.53;;;1.52;;
65387;SDS011;51992;53.528;49.474;2024-03-23T09:53:21;2.17;;;1.35;;
65387;SDS011;51992;53.528;49.474;2024-03-23T09:55:48;3.45;;;1.50;;
65387;SDS011;51992;53.528;49.474;2024-03-23T09:58:15;2.13;;;0.90;;
65387;SDS011;51992;53.528;49.474;2024-03-23T10:00:40;0.95;;;0.93;;
65387;SDS011;51992;53.528;49.474;2024-03-23T10:03:06;2.90;;;0.90;;
65387;SDS011;51992;53.528;49.474;2024-03-23T10:05:32;1.00;;;0.80;;
65387;SDS011;51992;53.528;49.474;2024-03-23T10:10:56;3.05;;;1.10;;
65387;SDS011;51992;53.528;49.474;2024-03-23T10:13:26;2.95;;;1.17;;
65387;SDS011;51992;53.528;49.474;2024-03-23T10:15:55;2.25;;;0.98;;
65387;SDS011;51992;53.528;49.474;2024-03-23T10:18:22;1.87;;;0.90;;
65387;SDS011;51992;53.528;49.474;2024-03-23T10:21:06;2.25;;;0.98;;
65387;SDS011;51992;53.528;49.474;2024-03-23T10:23:35;1.30;;;1.20;;
65387;SDS011;51992;53.528;49.474;2024-03-23T10:28:55;2.28;;;0.90;;
65387;SDS011;51992;53.528;49.474;2024-03-23T10:31:28;1.83;;;0.90;;
65387;SDS011;51992;53.528;49.474;2024-03-23T10:33:54;2.78;;;0.90;;
65387;SDS011;51992;53.528;49.474;2024-03-23T10:36:21;4.05;;;1.08;;
65387;SDS011;51992;53.528;49.474;2024-03-23T10:38:47;1.52;;;0.90;;
65387;SDS011;51992;53.528;49.474;2024-03-23T10:41:13;2.03;;;1.30;;
65387;SDS011;51992;53.528;49.474;2024-03-23T10:43:39;0.80;;;0.65;;
65387;SDS011;51992;53.528;49.474;2024-03-23T10:46:05;2.38;;;0.90;;
65387;SDS011;51992;53.528;49.474;2024-03-23T10:48:31;1.20;;;0.88;;
65387;SDS011;51992;53.528;49.474;2024-03-23T10:50:57;4.63;;;1.00;;
65387;SDS011;51992;53.528;49.474;2024-03-23T10:53:25;2.22;;;0.77;;
65387;SDS011;51992;53.528;49.474;2024-03-23T10:55:51;2.60;;;1.60;;
65387;SDS011;51992;53.528;49.474;2024-03-23T10:58:17;2.08;;;0.90;;
65387;SDS011;51992;53.528;49.474;2024-03-23T11:00:44;1.35;;;0.90;;
65387;SDS011;51992;53.528;49.474;2024-03-23T11:05:54;1.90;;;0.73;;
65387;SDS011;51992;53.528;49.474;2024-03-23T11:08:34;0.63;;;0.60;;
65387;SDS011;51992;53.528;49.474;2024-03-23T11:11:19;1.85;;;0.60;;
65387;SDS011;51992;53.528;49.474;2024-03-23T11:13:49;1.92;;;0.93;;
65387;SDS011;51992;53.528;49.474;2024-03-23T11:16:15;1.92;;;0.95;;
65387;SDS011;51992;53.528;49.474;2024-03-23T11:18:41;3.35;;;0.90;;
65387;SDS011;51992;53.528;49.474;2024-03-23T11:21:07;1.05;;;0.85;;
65387;SDS011;51992;53.528;49.474;2024-03-23T11:23:33;1.63;;;1.00;;
65387;SDS011;51992;53.528;49.474;2024-03-23T11:25:59;1.10;;;0.80;;
65387;SDS011;51992;53.528;49.474;2024-03-23T11:28:24;1.80;;;0.77;;
65387;SDS011;51992;53.528;49.474;2024-03-23T11:30:50;1.30;;;0.85;;
65387;SDS011;51992;53.528;49.474;2024-03-23T11:33:19;2.47;;;0.85;;
65387;SDS011;51992;53.528;49.474;2024-03-23T11:35:47;1.88;;;1.05;;
65387;SDS011;51992;53.528;49.474;2024-03-23T11:38:13;1.08;;;0.98;;
65387;SDS011;51992;53.528;49.474;2024-03-23T11:40:40;1.45;;;0.80;;
65387;SDS011;51992;53.528;49.474;2024-03-23T11:43:07;2.10;;;1.30;;
65387;SDS011;51992;53.528;49.474;2024-03-23T11:45:37;2.92;;;2.30;;
65387;SDS011;51992;53.528;49.474;2024-03-23T11:48:04;2.30;;;2.10;;
65387;SDS011;51992;53.528;49.474;2024-03-23T11:50:34;2.13;;;1.90;;
65387;SDS011;51992;53.528;49.474;2024-03-23T11:58:13;1.50;;;1.27;;
65387;SDS011;51992;53.528;49.474;2024-03-23T12:00:39;1.95;;;1.42;;
65387;SDS011;51992;53.528;49.474;2024-03-23T12:03:05;1.75;;;1.35;;
65387;SDS011;51992;53.528;49.474;2024-03-23T12:05:34;2.72;;;1.90;;
65387;SDS011;51992;53.528;49.474;2024-03-23T12:10:46;1.55;;;1.45;;
65387;SDS011;51992;53.528;49.474;2024-03-23T12:13:14;2.25;;;1.52;;
65387;SDS011;51992;53.528;49.474;2024-03-23T12:15:40;3.75;;;1.77;;
65387;SDS011;51992;53.528;49.474;2024-03-23T12:18:09;2.80;;;2.10;;
65387;SDS011;51992;53.528;49.474;2024-03-23T12:20:35;4.60;;;1.95;;
65387;SDS011;51992;53.528;49.474;2024-03-23T12:23:08;2.35;;;2.15;;
65387;SDS011;51992;53.528;49.474;2024-03-23T12:25:34;3.75;;;2.10;;
65387;SDS011;51992;53.528;49.474;2024-03-23T12:28:00;6.45;;;2.63;;
65387;SDS011;51992;53.528;49.474;2024-03-23T12:30:26;5.65;;;2.72;;
65387;SDS011;51992;53.528;49.474;2024-03-23T12:32:52;6.55;;;2.35;;
65387;SDS011;51992;53.528;49.474;2024-03-23T12:35:17;4.85;;;2.05;;
65387;SDS011;51992;53.528;49.474;2024-03-23T12:37:43;3.40;;;2.45;;
65387;SDS011;51992;53.528;49.474;2024-03-23T12:40:09;2.45;;;2.25;;
65387;SDS011;51992;53.528;49.474;2024-03-23T12:42:35;3.88;;;2.50;;
65387;SDS011;51992;53.528;49.474;2024-03-23T12:45:01;3.22;;;2.15;;
65387;SDS011;51992;53.528;49.474;2024-03-23T12:47:26;5.97;;;2.60;;
65387;SDS011;51992;53.528;49.474;2024-03-23T12:49:52;3.60;;;2.33;;
65387;SDS011;51992;53.528;49.474;2024-03-23T12:52:18;6.45;;;2.67;;
65387;SDS011;51992;53.528;49.474;2024-03-23T12:54:47;4.55;;;2.63;;
65387;SDS011;51992;53.528;49.474;2024-03-23T12:57:12;4.65;;;2.45;;
65387;SDS011;51992;53.528;49.474;2024-03-23T12:59:38;3.65;;;2.53;;
65387;SDS011;51992;53.528;49.474;2024-03-23T13:02:03;3.53;;;2.42;;
65387;SDS011;51992;53.528;49.474;2024-03-23T13:04:29;2.10;;;2.00;;
65387;SDS011;51992;53.528;49.474;2024-03-23T13:06:55;6.72;;;2.08;;
65387;SDS011;51992;53.528;49.474;2024-03-23T13:09:20;3.33;;;1.40;;
65387;SDS011;51992;53.528;49.474;2024-03-23T13:11:46;2.38;;;2.17;;
65387;SDS011;51992;53.528;49.474;2024-03-23T13:14:12;1.38;;;1.23;;
65387;SDS011;51992;53.528;49.474;2024-03-23T13:16:40;2.15;;;1.80;;
65387;SDS011;51992;53.528;49.474;2024-03-23T13:19:05;1.98;;;1.77;;
65387;SDS011;51992;53.528;49.474;2024-03-23T13:21:31;3.33;;;1.40;;
65387;SDS011;51992;53.528;49.474;2024-03-23T13:23:57;3.28;;;1.40;;
65387;SDS011;51992;53.528;49.474;2024-03-23T13:26:22;2.55;;;1.38;;
65387;SDS011;51992;53.528;49.474;2024-03-23T13:28:48;1.25;;;1.15;;
65387;SDS011;51992;53.528;49.474;2024-03-23T13:31:14;2.67;;;1.50;;
65387;SDS011;51992;53.528;49.474;2024-03-23T13:33:40;4.20;;;1.60;;
65387;SDS011;51992;53.528;49.474;2024-03-23T13:36:07;3.75;;;2.03;;
65387;SDS011;51992;53.528;49.474;2024-03-23T13:38:33;8.13;;;1.67;;
65387;SDS011;51992;53.528;49.474;2024-03-23T13:40:59;2.42;;;1.10;;
65387;SDS011;51992;53.528;49.474;2024-03-23T13:43:26;1.60;;;1.20;;
65387;SDS011;51992;53.528;49.474;2024-03-23T13:45:58;2.80;;;1.23;;
65387;SDS011;51992;53.528;49.474;2024-03-23T13:48:25;1.40;;;1.30;;
65387;SDS011;51992;53.528;49.474;2024-03-23T13:51:03;3.70;;;1.40;;
65387;SDS011;51992;53.528;49.474;2024-03-23T13:53:30;2.47;;;1.30;;
65387;SDS011;51992;53.528;49.474;2024-03-23T13:55:56;1.23;;;1.10;;
65387;SDS011;51992;53.528;49.474;2024-03-23T13:58:22;1.50;;;1.25;;
65387;SDS011;51992;53.528;49.474;2024-03-23T14:00:51;1.50;;;1.40;;
65387;SDS011;51992;53.528;49.474;2024-03-23T14:03:17;3.15;;;1.70;;
65387;SDS011;51992;53.528;49.474;2024-03-23T14:05:46;3.35;;;1.60;;
65387;SDS011;51992;53.528;49.474;2024-03-23T14:08:15;2.90;;;2.00;;
65387;SDS011;51992;53.528;49.474;2024-03-23T14:10:41;3.38;;;1.90;;
65387;SDS011;51992;53.528;49.474;2024-03-23T14:13:07;2.38;;;1.90;;
65387;SDS011;51992;53.528;49.474;2024-03-23T14:15:33;4.13;;;2.30;;
65387;SDS011;51992;53.528;49.474;2024-03-23T14:17:58;3.58;;;2.47;;
65387;SDS011;51992;53.528;49.474;2024-03-23T14:20:24;2.90;;;2.13;;
65387;SDS011;51992;53.528;49.474;2024-03-23T14:22:51;7.75;;;3.90;;
65387;SDS011;51992;53.528;49.474;2024-03-23T14:25:17;2.65;;;2.10;;
65387;SDS011;51992;53.528;49.474;2024-03-23T14:27:46;5.28;;;2.17;;
65387;SDS011;51992;53.528;49.474;2024-03-23T14:30:12;3.55;;;2.40;;
65387;SDS011;51992;53.528;49.474;2024-03-23T14:32:38;4.75;;;2.42;;
65387;SDS011;51992;53.528;49.474;2024-03-23T14:35:04;4.65;;;2.50;;
65387;SDS011;51992;53.528;49.474;2024-03-23T14:37:30;2.63;;;2.17;;
65387;SDS011;51992;53.528;49.474;2024-03-23T14:39:56;4.50;;;2.13;;
65387;SDS011;51992;53.528;49.474;2024-03-23T14:42:22;4.25;;;2.33;;
65387;SDS011;51992;53.528;49.474;2024-03-23T14:44:49;4.85;;;2.30;;
65387;SDS011;51992;53.528;49.474;2024-03-23T14:47:15;1.90;;;1.42;;
65387;SDS011;51992;53.528;49.474;2024-03-23T14:49:41;3.60;;;2.00;;
65387;SDS011;51992;53.528;49.474;2024-03-23T14:52:06;3.38;;;1.85;;
65387;SDS011;51992;53.528;49.474;2024-03-23T14:54:34;3.83;;;2.30;;
65387;SDS011;51992;53.528;49.474;2024-03-23T14:57:00;4.35;;;2.00;;
65387;SDS011;51992;53.528;49.474;2024-03-23T14:59:26;3.65;;;2.00;;
65387;SDS011;51992;53.528;49.474;2024-03-23T15:01:52;4.25;;;2.10;;
65387;SDS011;51992;53.528;49.474;2024-03-23T15:04:17;4.53;;;2.20;;
65387;SDS011;51992;53.528;49.474;2024-03-23T15:06:43;6.13;;;2.00;;
65387;SDS011;51992;53.528;49.474;2024-03-23T15:09:11;2.85;;;1.80;;
65387;SDS011;51992;53.528;49.474;2024-03-23T15:11:37;4.25;;;2.40;;
65387;SDS011;51992;53.528;49.474;2024-03-23T15:14:03;4.15;;;1.98;;
65387;SDS011;51992;53.528;49.474;2024-03-23T15:16:28;3.92;;;2.00;;
65387;SDS011;51992;53.528;49.474;2024-03-23T15:18:54;2.03;;;1.60;;
65387;SDS011;51992;53.528;49.474;2024-03-23T15:21:20;1.50;;;1.40;;
65387;SDS011;51992;53.528;49.474;2024-03-23T15:23:47;2.38;;;1.27;;
65387;SDS011;51992;53.528;49.474;2024-03-23T15:26:13;3.97;;;1.70;;
65387;SDS011;51992;53.528;49.474;2024-03-23T15:28:39;3.67;;;1.70;;
65387;SDS011;51992;53.528;49.474;2024-03-23T15:31:27;3.45;;;1.73;;
65387;SDS011;51992;53.528;49.474;2024-03-23T15:33:54;3.08;;;2.10;;
65387;SDS011;51992;53.528;49.474;2024-03-23T15:36:20;4.63;;;2.30;;
65387;SDS011;51992;53.528;49.474;2024-03-23T15:38:46;5.15;;;2.70;;